Pagrindinis puslapis
METAR-TAF:

METAR-TAF

Oro uostai :

Bandar Lengeh, Iranas

platuma: 26-35N, ilguma: 054-50E, Aukštis: 14 m

Dabartinis oras

Ataskaita buvo paskelbta 14 minutes, ne 07:00 UTC
Vėjas 14 kt iš Rytų/Šiaurės Rytų
Temperatūra 25°C
Drėgmė 54%
Slėgis 1017 hPa
Matomumas: 8000 m

METAR: OIBL 070700Z 07014KT 8000 NSC 25/15 Q1017

Laikas: 10:44 (07:14 UTC)


TAF: trūkstamas

Orai ataskaitas ir orų prognozės (METAR, TAF).

turimą stotys yra geltonos ir raudonos taškus žemėlapyje.

Perkelti pele per norėdami pamatyti stoties vardą.

Tada spustelėkite, norėdami matyti oro stebėjimo ir prognozės.

Norėdami pakeisti žemėlapį: spustelėkite ant žalios mygtukų su juodo kryžiaus žemyn,; žalią mygtuką su brūkšneliu, jei norite nutolinti; arba žalių rodyklių gretimoms žemėlapius.


METAR-TAF: